Airfield :







YOU CAN JOIN US ON...

 
LOGIN :

Register | Disclaimer

   EN    FR    IT 

 









Legend :    VFR   Marginal VFR   IFR   Intensive IFR   Very Intensive IFR
Visi :
Ceiling :
>= 8 km
>= 3000ft
5 to 8 km
1000 to 3000 ft
1500m to 5 km
500 to 1000 ft
800 to 1500m
200 to 500 ft
< 800m
< 200 ft
Symbols :   Thunderstorms  Fog  Heavy snow  Heavy precipitations  Wind > 20 kt






- Airport Elevation : 1166 ft


KMPV - Edward F Knapp State

CURRENT METAR :
  • 170251Z AUTO 17007KT 10SM OVC043 M01/M06 A3000 RMK AO2 SLP175 T10061056 55003

EXPIRED METARs :
  • 170151Z AUTO 17009KT 10SM OVC043 M01/M06 A3000 RMK AO2 SLP174 T10061056
  • 170051Z AUTO 16009KT 10SM OVC041 M01/M06 A3000 RMK AO2 SLP176 T10061056

TAF KMPV
Valid from the 17 at 00:00 until the 18 at 00:00 UTC


162334Z 1700/1724 18008KT P6SM OVC030
FM170800 29006KT P6SM VCSH OVC030
FM171200 30006KT P6SM OVC040
FM171700 33006KT P6SM SCT040



MET'MAP, your aeronautical weather chart ! - Copyright ORBIFLY December 2007 - Disclaimer

ORBIFLY MET'MAP TEAM :

Programming & Development : Alexandra Zaïnal
Concept & original design : Baudouin d'Aumeries
Assistance for programming : Marc-Olivier Méhu
Technical & hardware support : Manuel Goepfert

Contact : metmap@orbifly.com




SOURCES & CREDITS :

   NOAA